createdAt,value
2018-06-17T00:01:18.005Z,79.31
2018-06-17T00:03:46.320Z,79.50
2018-06-17T00:06:14.609Z,78.54
2018-06-17T00:08:42.945Z,78.95
2018-06-17T00:11:11.238Z,77.52
2018-06-17T00:13:39.648Z,79.79
2018-06-17T00:16:08.298Z,80.43
2018-06-17T00:18:36.631Z,80.51
2018-06-17T00:21:04.929Z,80.64
2018-06-17T00:23:33.208Z,81.67
2018-06-17T00:26:01.505Z,83.03
2018-06-17T00:28:29.869Z,82.78
2018-06-17T00:30:58.144Z,83.45
2018-06-17T00:33:26.441Z,83.33
2018-06-17T00:35:54.732Z,83.80
2018-06-17T00:38:23.070Z,83.54
2018-06-17T00:40:51.321Z,83.29
2018-06-17T00:43:19.585Z,83.12
2018-06-17T00:45:47.868Z,83.72
2018-06-17T00:48:16.147Z,83.84
2018-06-17T00:50:44.431Z,85.02
2018-06-17T00:53:12.756Z,84.20
2018-06-17T00:55:41.041Z,84.45
2018-06-17T00:58:09.317Z,84.82
2018-06-17T01:00:37.657Z,85.14
2018-06-17T01:03:06.041Z,86.08
2018-06-17T01:05:34.325Z,88.04
2018-06-17T01:08:02.601Z,89.03
2018-06-17T01:10:31.000Z,89.66
2018-06-17T01:12:59.253Z,90.00
2018-06-17T01:15:27.621Z,89.57
2018-06-17T01:17:55.874Z,88.50
2018-06-17T01:20:24.178Z,90.05
2018-06-17T01:22:52.543Z,89.71
2018-06-17T01:25:20.818Z,88.99
2018-06-17T01:27:49.072Z,87.83
2018-06-17T01:30:17.329Z,87.80
2018-06-17T01:32:45.633Z,86.92
2018-06-17T01:35:14.009Z,86.35
2018-06-17T01:37:42.293Z,86.20
2018-06-17T01:40:10.548Z,85.90
2018-06-17T01:42:38.824Z,85.49
2018-06-17T01:45:07.112Z,85.46
2018-06-17T01:47:35.397Z,84.69
2018-06-17T01:50:03.713Z,84.51
2018-06-17T01:52:32.015Z,83.99
2018-06-17T01:55:00.269Z,84.75
2018-06-17T01:57:28.633Z,83.35
2018-06-17T01:59:56.881Z,82.39
2018-06-17T02:02:25.165Z,84.10
2018-06-17T02:04:58.740Z,83.76
2018-06-17T02:07:32.361Z,83.41
2018-06-17T02:10:05.899Z,84.27
2018-06-17T02:12:34.182Z,82.29
2018-06-17T02:15:02.480Z,81.64
2018-06-17T02:17:30.760Z,83.29
2018-06-17T02:19:59.041Z,83.55
2018-06-17T02:22:27.297Z,82.56
2018-06-17T02:24:55.632Z,83.20
2018-06-17T02:27:24.088Z,82.78
2018-06-17T02:29:52.393Z,82.41
2018-06-17T02:32:20.740Z,82.78
2018-06-17T02:34:49.140Z,84.18
2018-06-17T02:37:17.508Z,84.13
2018-06-17T02:39:45.816Z,83.24
2018-06-17T02:42:14.073Z,82.77
2018-06-17T02:44:42.362Z,82.64
2018-06-17T02:47:15.877Z,82.62
2018-06-17T02:49:46.688Z,82.22
2018-06-17T02:52:20.413Z,82.69
2018-06-17T02:54:49.126Z,82.24
2018-06-17T02:57:18.605Z,82.64
2018-06-17T02:59:47.208Z,82.71
2018-06-17T03:02:15.884Z,83.43
2018-06-17T03:04:44.156Z,83.06
2018-06-17T03:07:12.421Z,83.43
2018-06-17T03:09:40.786Z,83.21
2018-06-17T03:12:09.041Z,83.09
2018-06-17T03:14:37.313Z,83.96
2018-06-17T03:17:05.605Z,85.41
2018-06-17T03:19:33.939Z,85.72
2018-06-17T03:22:02.234Z,85.77
2018-06-17T03:24:36.057Z,85.79
2018-06-17T03:27:09.618Z,85.89
2018-06-17T03:29:43.013Z,85.02
2018-06-17T03:32:16.604Z,84.26
2018-06-17T03:34:44.951Z,84.52
2018-06-17T03:37:13.220Z,84.40
2018-06-17T03:39:41.492Z,85.19
2018-06-17T03:42:09.745Z,84.95
2018-06-17T03:44:38.017Z,84.47
2018-06-17T03:47:06.317Z,84.59
2018-06-17T03:49:34.573Z,84.07
2018-06-17T03:52:02.854Z,83.69
2018-06-17T03:54:31.105Z,83.81
2018-06-17T03:56:59.429Z,83.86
2018-06-17T03:59:27.796Z,83.56
2018-06-17T04:01:56.077Z,83.30
2018-06-17T04:04:24.333Z,82.55
2018-06-17T04:06:52.881Z,83.13
2018-06-17T04:09:21.173Z,84.24
2018-06-17T04:11:49.741Z,84.45
2018-06-17T04:14:18.045Z,85.22
2018-06-17T04:16:46.335Z,85.25
2018-06-17T04:19:14.594Z,84.03
2018-06-17T04:21:42.860Z,84.01
2018-06-17T04:24:11.180Z,84.44
2018-06-17T04:26:39.450Z,83.31
2018-06-17T04:29:07.698Z,82.87
2018-06-17T04:31:36.209Z,82.47
2018-06-17T04:34:04.461Z,82.82
2018-06-17T04:36:32.753Z,83.47
2018-06-17T04:39:01.025Z,84.79
2018-06-17T04:41:29.284Z,84.10
2018-06-17T04:43:57.565Z,83.73
2018-06-17T04:46:25.836Z,83.86
2018-06-17T04:48:54.141Z,83.71
2018-06-17T04:51:22.441Z,83.65
2018-06-17T04:53:50.729Z,83.23
2018-06-17T04:56:19.005Z,82.81
2018-06-17T04:58:47.353Z,81.12
2018-06-17T05:01:15.616Z,79.24
2018-06-17T05:03:44.021Z,79.98
2018-06-17T05:06:12.285Z,80.73
2018-06-17T05:08:40.575Z,79.89
2018-06-17T05:11:08.833Z,82.28
2018-06-17T05:13:37.109Z,81.95
2018-06-17T05:16:05.509Z,81.09
2018-06-17T05:18:33.833Z,80.93
2018-06-17T05:21:02.125Z,80.53
2018-06-17T05:23:30.389Z,79.31
2018-06-17T05:25:58.680Z,80.02
2018-06-17T05:28:26.947Z,78.89
2018-06-17T05:30:55.257Z,78.28
2018-06-17T05:33:23.560Z,75.60
2018-06-17T05:35:51.879Z,75.39
2018-06-17T05:38:20.389Z,75.83
2018-06-17T05:40:48.731Z,74.00
2018-06-17T05:43:16.984Z,73.37
2018-06-17T05:45:45.493Z,75.16
2018-06-17T05:48:13.749Z,73.71
2018-06-17T05:50:42.042Z,74.52
2018-06-17T05:53:10.301Z,72.66
2018-06-17T05:55:38.638Z,71.55
2018-06-17T05:58:06.854Z,71.88
2018-06-17T06:00:35.169Z,69.63
2018-06-17T06:03:03.422Z,70.01
2018-06-17T06:05:31.760Z,69.18
2018-06-17T06:08:00.074Z,70.31
2018-06-17T06:10:28.408Z,68.60
2018-06-17T06:12:56.657Z,69.12
2018-06-17T06:15:25.001Z,67.82
2018-06-17T06:17:53.297Z,66.05
2018-06-17T06:20:21.553Z,66.69
2018-06-17T06:22:49.851Z,66.08
2018-06-17T06:25:18.110Z,64.88
2018-06-17T06:27:46.509Z,63.11
2018-06-17T06:30:14.781Z,61.96
2018-06-17T06:32:43.064Z,62.72
2018-06-17T06:35:11.404Z,60.90
2018-06-17T06:37:39.705Z,62.31
2018-06-17T06:40:07.969Z,63.12
2018-06-17T06:42:36.389Z,63.57
2018-06-17T06:45:04.665Z,63.82
2018-06-17T06:47:33.169Z,62.74
2018-06-17T06:50:01.491Z,62.01
2018-06-17T06:52:29.709Z,61.52
2018-06-17T06:54:57.972Z,62.45
2018-06-17T06:57:26.288Z,60.61
2018-06-17T06:59:54.553Z,59.67
2018-06-17T07:02:34.214Z,59.33
2018-06-17T07:05:13.912Z,57.53
2018-06-17T07:07:53.581Z,59.97
2018-06-17T07:10:26.065Z,60.07
2018-06-17T07:12:54.432Z,58.95
2018-06-17T07:15:35.277Z,57.43
2018-06-17T07:18:14.774Z,54.24
2018-06-17T07:20:43.505Z,55.95
2018-06-17T07:23:11.797Z,54.49
2018-06-17T07:26:52.145Z,54.00
2018-06-17T07:29:33.966Z,54.53
2018-06-17T07:32:02.271Z,53.14
2018-06-17T07:34:30.604Z,52.10
2018-06-17T07:36:58.905Z,52.43
2018-06-17T07:41:36.205Z,53.08
2018-06-17T07:44:04.530Z,54.49
2018-06-17T07:46:32.809Z,55.15
2018-06-17T07:49:38.809Z,54.11
2018-06-17T07:52:19.245Z,53.75
2018-06-17T07:54:47.849Z,53.05
2018-06-17T07:57:17.439Z,53.41
2018-06-17T07:59:45.732Z,51.43
2018-06-17T08:02:14.505Z,52.00
2018-06-17T08:04:42.951Z,52.59
2018-06-17T08:07:11.152Z,50.88
2018-06-17T08:09:39.441Z,50.19
2018-06-17T08:12:09.029Z,50.06
2018-06-17T08:14:37.395Z,49.16
2018-06-17T08:17:06.154Z,46.70
2018-06-17T08:19:34.567Z,47.12
2018-06-17T08:22:03.269Z,48.87
2018-06-17T08:24:32.193Z,48.82
2018-06-17T08:27:00.454Z,49.59
2018-06-17T08:29:28.765Z,51.33
2018-06-17T08:31:57.309Z,49.87
2018-06-17T08:34:25.621Z,50.58
2018-06-17T08:36:53.917Z,52.42
2018-06-17T08:39:23.241Z,52.71
2018-06-17T08:41:51.533Z,52.50
2018-06-17T08:44:20.319Z,50.67
2018-06-17T08:46:49.355Z,49.00
2018-06-17T08:49:18.930Z,46.35
2018-06-17T08:51:47.209Z,46.33
2018-06-17T09:40:08.385Z,52.30
2018-06-17T09:42:36.903Z,52.88
2018-06-17T09:45:05.219Z,51.44
2018-06-17T09:47:33.469Z,50.70
2018-06-17T09:50:01.786Z,50.86
2018-06-17T09:52:30.049Z,49.42
2018-06-17T09:54:58.357Z,51.73
2018-06-17T09:57:26.616Z,52.31
2018-06-17T09:59:55.346Z,51.11
2018-06-17T10:02:23.674Z,50.74
2018-06-17T10:04:52.073Z,49.73
2018-06-17T10:07:20.321Z,47.78
2018-06-17T10:10:55.769Z,48.86
2018-06-17T10:13:25.309Z,48.66
2018-06-17T10:15:53.832Z,48.27
2018-06-17T10:18:22.780Z,48.37
2018-06-17T10:20:51.293Z,50.04
2018-06-17T10:23:19.693Z,50.67
2018-06-17T10:25:48.913Z,49.72
2018-06-17T10:28:17.629Z,49.99
2018-06-17T10:30:47.177Z,48.93
2018-06-17T10:33:15.621Z,47.46
2018-06-17T10:35:44.709Z,48.80
2018-06-17T10:38:13.171Z,50.62
2018-06-17T10:40:41.444Z,48.31
2018-06-17T10:43:12.027Z,47.64
2018-06-17T10:45:40.683Z,47.59
2018-06-17T10:48:09.289Z,47.16
2018-06-17T10:50:37.693Z,47.02
2018-06-17T10:53:06.201Z,46.27
2018-06-17T10:55:34.497Z,46.96
2018-06-17T10:58:06.182Z,48.08
2018-06-17T11:00:34.571Z,48.12
2018-06-17T11:03:02.857Z,47.66
2018-06-17T11:05:31.255Z,45.34
2018-06-17T11:07:59.481Z,46.58
2018-06-17T11:10:27.733Z,47.60
2018-06-17T11:12:56.019Z,46.87
2018-06-17T11:15:24.305Z,46.47
2018-06-17T11:17:52.617Z,47.97
2018-06-17T11:20:20.865Z,46.54
2018-06-17T11:22:49.169Z,47.05
2018-06-17T11:25:17.449Z,47.89
2018-06-17T11:27:45.777Z,47.65
2018-06-17T11:30:14.049Z,48.49
2018-06-17T11:32:42.424Z,46.69
2018-06-17T11:35:10.868Z,47.88
2018-06-17T11:37:39.374Z,49.06
2018-06-17T11:40:07.651Z,48.57
2018-06-17T11:42:35.901Z,47.82
2018-06-17T11:45:04.197Z,48.36
2018-06-17T11:47:32.465Z,49.24
2018-06-17T11:50:00.757Z,50.58
2018-06-17T11:52:29.025Z,51.68
2018-06-17T11:54:57.413Z,52.01
2018-06-17T11:57:25.691Z,52.81
2018-06-17T11:59:54.009Z,51.71
2018-06-17T12:02:22.311Z,50.69
2018-06-17T12:04:50.605Z,49.57
2018-06-17T12:07:18.849Z,49.46
2018-06-17T12:09:47.152Z,50.65
2018-06-17T12:12:15.405Z,50.35
2018-06-17T12:14:43.772Z,50.29
2018-06-17T12:17:11.985Z,47.62
2018-06-17T12:19:40.369Z,47.65
2018-06-17T12:22:09.093Z,48.39
2018-06-17T12:24:37.385Z,48.92
2018-06-17T12:27:06.117Z,50.65
2018-06-17T12:29:34.429Z,51.60
2018-06-17T12:32:02.704Z,52.25
2018-06-17T12:34:30.985Z,52.30
2018-06-17T12:36:59.321Z,52.39
2018-06-17T12:39:27.580Z,52.56
2018-06-17T12:41:55.881Z,53.46
2018-06-17T12:44:24.153Z,54.24
2018-06-17T12:46:52.532Z,57.67
2018-06-17T12:49:20.818Z,61.25
2018-06-17T12:51:49.115Z,65.41
2018-06-17T12:54:17.372Z,70.38
2018-06-17T12:56:45.673Z,71.88
2018-06-17T12:59:13.962Z,75.27
2018-06-17T13:01:42.271Z,75.51
2018-06-17T13:04:10.577Z,76.50
2018-06-17T13:06:38.873Z,76.45
2018-06-17T13:09:09.506Z,76.53
2018-06-17T13:11:37.801Z,75.32
2018-06-17T13:14:06.091Z,76.65
2018-06-17T13:16:34.413Z,76.43
2018-06-17T13:19:03.226Z,76.19
2018-06-17T13:21:31.538Z,77.12
2018-06-17T13:23:59.857Z,77.10
2018-06-17T13:26:28.237Z,77.62
2018-06-17T13:28:56.540Z,77.50
2018-06-17T13:31:24.824Z,74.76
2018-06-17T13:33:53.086Z,73.63
2018-06-17T13:36:21.417Z,71.67
2018-06-17T13:38:49.693Z,67.38
2018-06-17T13:41:17.962Z,65.03
2018-06-17T13:43:46.266Z,61.23
2018-06-17T13:46:14.557Z,64.48
2018-06-17T13:48:42.901Z,63.04
2018-06-17T13:51:11.190Z,63.92
2018-06-17T13:53:39.497Z,63.47
2018-06-17T13:56:07.869Z,57.78
2018-06-17T13:58:36.160Z,57.81
2018-06-17T14:01:04.485Z,54.96
2018-06-17T14:03:32.761Z,54.17
2018-06-17T14:06:01.403Z,46.19
2018-06-17T14:08:38.234Z,46.36
2018-06-17T14:11:06.477Z,53.56
2018-06-17T14:13:34.856Z,51.12
2018-06-17T14:16:03.081Z,46.55
2018-06-17T14:18:31.369Z,42.72
2018-06-17T14:20:59.645Z,38.72
2018-06-17T14:23:27.945Z,33.98
2018-06-17T14:25:56.189Z,35.60
2018-06-17T14:28:24.521Z,37.15
2018-06-17T14:30:52.813Z,37.24
2018-06-17T14:33:21.129Z,35.35
2018-06-17T14:35:49.425Z,42.78
2018-06-17T14:38:17.909Z,46.30
2018-06-17T14:40:51.557Z,46.10
2018-06-17T14:43:25.074Z,43.21
2018-06-17T14:46:01.307Z,39.98
2018-06-17T14:48:35.085Z,38.80
2018-06-17T14:51:08.825Z,35.92
2018-06-17T14:53:37.076Z,37.12
2018-06-17T14:56:05.821Z,40.98
2018-06-17T14:58:34.285Z,38.45
2018-06-17T15:01:02.700Z,42.68
2018-06-17T15:03:31.075Z,41.31
2018-06-17T15:05:59.266Z,35.14
2018-06-17T15:08:27.517Z,31.29
2018-06-17T15:10:55.801Z,28.18
2018-06-17T15:13:24.072Z,35.67
2018-06-17T15:15:52.366Z,39.29
2018-06-17T15:18:20.704Z,41.27
2018-06-17T15:20:48.905Z,40.74
2018-06-17T15:23:17.180Z,34.91
2018-06-17T15:25:45.482Z,32.04
2018-06-17T15:28:13.725Z,34.82
2018-06-17T15:30:42.045Z,32.16
2018-06-17T15:33:15.466Z,36.14
2018-06-17T15:35:49.142Z,33.92
2018-06-17T15:38:22.866Z,36.18
2018-06-17T15:40:56.583Z,37.72
2018-06-17T15:43:25.115Z,34.54
2018-06-17T15:45:53.405Z,33.31
2018-06-17T15:48:21.760Z,32.71
2018-06-17T15:50:50.335Z,32.09
2018-06-17T15:53:19.709Z,32.97
2018-06-17T15:55:47.985Z,32.56
2018-06-17T15:58:16.300Z,31.98
2018-06-17T16:00:44.576Z,31.65
2018-06-17T16:03:12.873Z,32.70
2018-06-17T16:05:41.124Z,32.88
2018-06-17T16:08:09.682Z,31.54
2018-06-17T16:10:37.997Z,33.10
2018-06-17T16:18:02.942Z,31.90
2018-06-17T16:54:50.066Z,32.00
2018-06-17T17:06:33.910Z,38.58
2018-06-17T17:09:02.245Z,37.83
2018-06-17T17:11:30.534Z,38.42
2018-06-17T17:17:01.749Z,41.03
2018-06-17T17:19:30.078Z,40.98
2018-06-17T17:21:58.358Z,41.36
2018-06-17T17:24:26.683Z,41.76
2018-06-17T17:26:55.020Z,41.76
2018-06-17T17:29:23.389Z,41.85
2018-06-17T17:31:56.956Z,41.67
2018-06-17T17:34:31.124Z,42.07
2018-06-17T17:37:04.806Z,41.75
2018-06-17T17:39:38.485Z,41.99
2018-06-17T17:42:07.049Z,43.02
2018-06-17T17:44:40.712Z,42.77
2018-06-17T17:47:14.297Z,43.72
2018-06-17T17:49:42.609Z,44.32
2018-06-17T17:52:10.922Z,44.43
2018-06-17T17:54:39.241Z,45.15
2018-06-17T17:57:08.870Z,45.16
2018-06-17T17:59:37.145Z,45.38
2018-06-17T18:02:05.718Z,44.99
2018-06-17T18:04:34.237Z,45.62
2018-06-17T18:07:02.933Z,46.58
2018-06-17T18:09:31.597Z,47.50
2018-06-17T18:11:59.993Z,47.44
2018-06-17T18:14:28.545Z,46.75
2018-06-17T18:16:57.245Z,47.40
2018-06-17T18:19:25.612Z,47.52
2018-06-17T18:21:53.926Z,47.74
2018-06-17T18:24:22.318Z,48.29
2018-06-17T18:26:56.028Z,49.30
2018-06-17T18:29:29.477Z,49.43
2018-06-17T18:32:03.225Z,49.15
2018-06-17T18:34:36.668Z,48.08
2018-06-17T18:37:05.030Z,47.93
2018-06-17T18:39:33.322Z,48.25
2018-06-17T18:42:01.652Z,48.12
2018-06-17T18:44:29.885Z,48.62
2018-06-17T18:46:58.186Z,49.08
2018-06-17T18:49:26.561Z,48.83
2018-06-17T18:51:54.889Z,49.78
2018-06-17T18:54:23.162Z,49.04
2018-06-17T18:56:52.974Z,49.86
2018-06-17T18:59:21.245Z,49.87
2018-06-17T19:01:49.582Z,50.90
2018-06-17T19:04:18.398Z,51.54
2018-06-17T19:06:46.666Z,51.53
2018-06-17T19:09:20.329Z,52.32
2018-06-17T19:11:54.065Z,52.84
2018-06-17T19:14:27.534Z,53.33
2018-06-17T19:17:01.021Z,53.33
2018-06-17T19:19:29.378Z,53.18
2018-06-17T19:21:57.676Z,53.76
2018-06-17T19:24:26.815Z,53.91
2018-06-17T19:26:55.105Z,54.36
2018-06-17T19:29:23.397Z,54.79
2018-06-17T19:31:51.677Z,54.46
2018-06-17T19:34:23.340Z,55.46
2018-06-17T19:36:51.689Z,54.62
2018-06-17T19:39:19.978Z,55.33
2018-06-17T19:41:48.230Z,55.56
2018-06-17T19:44:16.597Z,55.65
2018-06-17T19:46:44.844Z,56.30
2018-06-17T19:49:13.211Z,55.64
2018-06-17T19:51:46.729Z,55.10
2018-06-17T19:54:20.198Z,56.98
2018-06-17T19:56:53.865Z,56.26
2018-06-17T19:59:27.356Z,56.82
2018-06-17T20:01:55.606Z,57.13
2018-06-17T20:04:23.921Z,56.84
2018-06-17T20:06:52.193Z,57.50
2018-06-17T20:09:20.457Z,57.68
2018-06-17T20:11:48.762Z,57.40
2018-06-17T20:14:17.126Z,57.90
2018-06-17T20:16:45.400Z,57.41
2018-06-17T20:19:13.650Z,58.13
2018-06-17T20:21:41.929Z,58.43
2018-06-17T20:24:10.185Z,58.85
2018-06-17T20:26:38.515Z,59.21
2018-06-17T20:29:06.764Z,59.31
2018-06-17T20:31:39.209Z,59.60
2018-06-17T20:34:12.769Z,59.87
2018-06-17T20:36:46.333Z,59.95
2018-06-17T20:39:19.862Z,60.22
2018-06-17T20:41:53.450Z,60.02
2018-06-17T20:44:21.722Z,61.37
2018-06-17T20:46:50.013Z,61.04
2018-06-17T20:49:18.264Z,60.46
2018-06-17T20:51:46.518Z,60.03
2018-06-17T20:54:14.816Z,60.94
2018-06-17T20:56:43.085Z,61.03
2018-06-17T20:59:11.374Z,61.49
2018-06-17T21:01:39.647Z,62.16
2018-06-17T21:04:07.919Z,62.82
2018-06-17T21:06:36.187Z,62.46
2018-06-17T21:09:06.248Z,63.48
2018-06-17T21:11:34.589Z,64.00
2018-06-17T21:14:02.950Z,64.30
2018-06-17T21:16:31.212Z,65.32
2018-06-17T21:19:04.625Z,65.73
2018-06-17T21:21:38.208Z,65.50
2018-06-17T21:24:11.829Z,65.94
2018-06-17T21:26:45.221Z,66.01
2018-06-17T21:29:13.506Z,66.12
2018-06-17T21:31:42.809Z,66.34
2018-06-17T21:34:11.590Z,66.00
2018-06-17T21:36:39.953Z,66.15
2018-06-17T21:39:09.837Z,66.34
2018-06-17T21:41:38.973Z,67.19
2018-06-17T21:44:07.721Z,67.36
2018-06-17T21:46:36.015Z,67.54
2018-06-17T21:49:04.342Z,68.38
2018-06-17T21:51:32.621Z,68.63
2018-06-17T21:54:00.901Z,68.43
2018-06-17T21:56:29.201Z,68.61
2018-06-17T21:58:57.553Z,68.62
2018-06-17T22:01:25.865Z,68.57
2018-06-17T22:03:58.364Z,69.21
2018-06-17T22:06:26.642Z,69.21
2018-06-17T22:09:00.153Z,69.14
2018-06-17T22:11:33.777Z,69.05
2018-06-17T22:14:07.349Z,69.47
2018-06-17T22:16:40.862Z,69.66
2018-06-17T22:19:09.117Z,69.92
2018-06-17T22:21:37.401Z,69.40
2018-06-17T22:24:05.692Z,69.25
2018-06-17T22:26:33.974Z,69.93
2018-06-17T22:29:02.249Z,69.69
2018-06-17T22:31:30.545Z,69.50
2018-06-17T22:33:58.792Z,69.66
2018-06-17T22:36:27.085Z,70.71
2018-06-17T22:38:55.373Z,69.98
2018-06-17T22:41:23.665Z,71.15
2018-06-17T22:43:52.169Z,71.24
2018-06-17T22:46:20.622Z,70.97
2018-06-17T22:48:48.884Z,71.49
2018-06-17T22:51:17.233Z,71.01
2018-06-17T22:53:56.681Z,70.70
2018-06-17T22:56:30.361Z,71.18
2018-06-17T22:59:04.053Z,70.32
2018-06-17T23:01:37.842Z,70.24
2018-06-17T23:04:11.518Z,70.49
2018-06-17T23:06:45.174Z,71.25
2018-06-17T23:09:18.714Z,71.75
2018-06-17T23:11:47.029Z,70.70
2018-06-17T23:14:15.449Z,70.85
2018-06-17T23:16:43.812Z,71.05
2018-06-17T23:19:12.068Z,71.20
2018-06-17T23:21:40.317Z,71.17
2018-06-17T23:24:08.597Z,69.77
2018-06-17T23:26:36.929Z,69.69
2018-06-17T23:29:05.533Z,70.65
2018-06-17T23:31:34.031Z,70.55
2018-06-17T23:34:02.340Z,70.80
2018-06-17T23:36:30.649Z,70.43
2018-06-17T23:38:59.006Z,70.87
2018-06-17T23:41:27.251Z,71.25
2018-06-17T23:43:55.523Z,70.49
2018-06-17T23:46:29.217Z,70.43
2018-06-17T23:49:02.910Z,70.76
2018-06-17T23:51:36.614Z,72.04
2018-06-17T23:54:10.173Z,71.96
2018-06-17T23:56:38.501Z,71.73
2018-06-17T23:59:06.784Z,71.86
